Time;durP1;ratioP1;P1;durP2;ratioP2;P2;SDS_P1;SDS_P2;PMS_P1;PMS_P2;Temp;Humidity;BMP_temperature;BMP_pressure;BME280_temperature;BME280_humidity;BME280_pressure;Samples;Min_cycle;Max_cycle;Signal;HPM_P1;HPM_P2
2022/07/29 00:00:40;;;;;;;10.48;3.38;;;20.30;98.80;;;;;;5116850;28;20420;-69
2022/07/29 00:03:06;;;;;;;9.23;2.80;;;20.50;98.60;;;;;;5116500;28;20020;-71
2022/07/29 00:05:31;;;;;;;4.70;2.33;;;20.50;98.60;;;;;;5116719;28;20027;-70
2022/07/29 00:07:57;;;;;;;10.57;3.08;;;20.40;98.70;;;;;;5116360;28;20111;-70
2022/07/29 00:10:23;;;;;;;5.38;2.47;;;20.30;99.30;;;;;;5116733;28;20020;-68
2022/07/29 00:12:49;;;;;;;11.20;3.45;;;20.20;99.50;;;;;;5098003;28;20492;-70
2022/07/29 00:15:15;;;;;;;7.05;2.70;;;20.10;99.90;;;;;;5116444;28;20023;-70
2022/07/29 00:17:40;;;;;;;4.82;2.30;;;20.00;99.90;;;;;;5116394;28;20023;-69
2022/07/29 00:20:07;;;;;;;8.07;2.75;;;19.70;99.90;;;;;;5116258;28;20036;-66
2022/07/29 00:22:32;;;;;;;8.98;2.47;;;19.60;99.90;;;;;;5116046;28;20063;-70
2022/07/29 00:24:58;;;;;;;4.93;2.42;;;19.90;99.90;;;;;;5116421;28;20446;-70
2022/07/29 00:27:24;;;;;;;8.23;2.35;;;19.90;99.90;;;;;;5112818;28;20047;-70
2022/07/29 00:29:50;;;;;;;8.50;2.22;;;20.00;99.90;;;;;;5105602;28;20024;-70
2022/07/29 00:32:15;;;;;;;8.20;2.28;;;20.10;99.90;;;;;;5115872;28;20107;-70
2022/07/29 00:37:25;;;;;;;12.90;2.72;;;19.90;99.90;;;;;;5115638;28;20380;-70
2022/07/29 00:39:51;;;;;;;5.55;2.00;;;20.00;99.90;;;;;;5116073;28;20032;-70
2022/07/29 00:42:17;;;;;;;3.92;1.60;;;20.00;99.90;;;;;;5116008;28;20028;-70
2022/07/29 00:44:43;;;;;;;3.58;1.75;;;19.80;99.90;;;;;;5115833;28;20030;-65
2022/07/29 00:47:10;;;;;;;7.95;2.47;;;19.80;99.90;;;;;;5115829;28;20467;-69
2022/07/29 00:49:38;;;;;;;8.73;2.13;;;20.00;99.90;;;;;;5115819;28;20064;-69
2022/07/29 00:52:08;;;;;;;7.55;1.65;;;19.80;99.90;;;;;;5115530;28;20102;-64
2022/07/29 00:54:34;;;;;;;3.47;2.10;;;19.90;99.90;;;;;;5115449;28;20022;-65
2022/07/29 00:57:00;;;;;;;6.47;1.83;;;20.00;99.90;;;;;;5115814;28;20487;-68
2022/07/29 00:59:29;;;;;;;4.80;1.90;;;20.00;99.90;;;;;;5115561;28;20062;-70
2022/07/29 01:01:55;;;;;;;3.42;1.60;;;20.10;99.90;;;;;;5115693;28;20024;-71
2022/07/29 01:04:21;;;;;;;4.25;1.83;;;20.00;99.90;;;;;;5115663;28;20480;-69
2022/07/29 01:06:48;;;;;;;6.97;2.03;;;19.90;99.90;;;;;;5110857;28;20032;-70
2022/07/29 01:09:15;;;;;;;3.20;1.52;;;19.90;99.90;;;;;;5094952;28;20026;-70
2022/07/29 01:11:43;;;;;;;4.82;2.00;;;19.90;99.90;;;;;;5098630;28;20028;-70
2022/07/29 01:14:09;;;;;;;4.55;1.88;;;19.90;99.90;;;;;;5093702;28;20116;-70
2022/07/29 01:17:01;;;;;;;5.93;2.17;;;20.00;99.90;;;;;;5100982;28;20028;-69
2022/07/29 01:19:48;;;;;;;4.10;1.42;;;19.80;99.90;;;;;;5115032;28;20126;-70
2022/07/29 01:22:36;;;;;;;7.03;1.98;;;19.80;99.90;;;;;;5115161;28;20031;-70
2022/07/29 01:25:39;;;;;;;7.32;1.65;;;19.80;99.90;;;;;;5100836;28;20120;-70
2022/07/29 01:28:20;;;;;;;7.40;1.63;;;19.80;99.90;;;;;;5115111;28;20044;-70
2022/07/29 01:30:49;;;;;;;4.93;1.63;;;19.90;99.90;;;;;;5101031;28;20590;-70
2022/07/29 01:36:10;;;;;;;6.10;1.80;;;19.80;99.90;;;;;;5084347;28;20020;-70
2022/07/29 01:38:41;;;;;;;11.25;1.58;;;19.80;99.90;;;;;;5115093;28;20065;-66
2022/07/29 01:41:12;;;;;;;6.60;1.85;;;19.70;99.90;;;;;;5107792;28;20039;-70
2022/07/29 01:43:56;;;;;;;7.70;1.95;;;19.70;99.90;;;;;;5108143;28;20040;-69
2022/07/29 01:46:35;;;;;;;4.85;1.80;;;19.90;99.90;;;;;;5102643;28;20047;-70
2022/07/29 01:49:16;;;;;;;9.15;2.50;;;19.80;99.90;;;;;;5114278;28;20030;-70
2022/07/29 01:51:50;;;;;;;8.88;1.90;;;19.70;99.90;;;;;;5114597;28;20028;-69
2022/07/29 01:54:21;;;;;;;8.25;2.03;;;19.60;99.90;;;;;;5114184;28;20024;-70
2022/07/29 01:56:50;;;;;;;9.30;2.03;;;19.50;99.90;;;;;;5114559;28;20456;-71
2022/07/29 01:59:18;;;;;;;7.88;1.92;;;19.50;99.90;;;;;;5114278;28;20031;-70
2022/07/29 02:01:46;;;;;;;5.43;1.70;;;19.50;99.90;;;;;;5114476;28;20070;-70
2022/07/29 02:04:15;;;;;;;8.73;2.30;;;19.30;99.90;;;;;;5095766;28;20015;-70
2022/07/29 02:06:42;;;;;;;5.43;2.17;;;19.30;99.90;;;;;;5114381;28;20464;-70
2022/07/29 02:09:12;;;;;;;7.10;2.47;;;19.40;99.90;;;;;;5114337;28;20036;-70
2022/07/29 02:11:39;;;;;;;8.95;2.50;;;19.40;99.90;;;;;;5114354;28;20098;-70
2022/07/29 02:14:06;;;;;;;5.72;2.15;;;19.10;99.90;;;;;;5114235;28;20092;-66
2022/07/29 02:16:35;;;;;;;9.73;2.90;;;19.20;99.90;;;;;;5099122;28;20352;-70
2022/07/29 02:19:02;;;;;;;5.13;2.53;;;19.30;99.90;;;;;;5113592;28;20062;-70
2022/07/29 02:21:30;;;;;;;9.73;2.35;;;19.20;99.90;;;;;;5114116;28;20023;-68
2022/07/29 02:24:00;;;;;;;6.35;2.08;;;19.30;99.90;;;;;;5113944;28;20016;-69
2022/07/29 02:26:28;;;;;;;8.18;2.03;;;19.10;99.90;;;;;;5113644;28;20030;-68
2022/07/29 02:28:57;;;;;;;6.32;2.10;;;19.20;99.90;;;;;;5113888;28;20066;-69
2022/07/29 02:31:26;;;;;;;7.30;1.60;;;19.10;99.90;;;;;;5113954;28;20023;-70
2022/07/29 02:33:53;;;;;;;2.67;1.60;;;19.10;99.90;;;;;;5114077;28;20023;-70
2022/07/29 02:36:22;;;;;;;5.13;1.50;;;19.20;99.90;;;;;;5113686;28;20463;-70
2022/07/29 02:38:53;;;;;;;8.45;2.00;;;19.10;99.90;;;;;;5113781;28;20026;-69
2022/07/29 02:41:44;;;;;;;6.82;2.10;;;19.10;99.90;;;;;;5113740;28;20061;-70
2022/07/29 02:44:13;;;;;;;9.07;2.47;;;19.30;99.90;;;;;;5068195;28;20044;-68
2022/07/29 02:46:45;;;;;;;7.85;1.58;;;19.30;99.90;;;;;;5113339;28;20059;-65
2022/07/29 02:49:33;;;;;;;5.97;1.65;;;19.30;99.90;;;;;;5099798;28;20039;-69
2022/07/29 02:52:03;;;;;;;10.63;2.20;;;19.40;99.90;;;;;;5113428;28;20034;-70
2022/07/29 02:54:32;;;;;;;6.90;1.98;;;19.30;99.90;;;;;;5113156;28;20059;-70
2022/07/29 02:57:03;;;;;;;5.68;1.90;;;19.00;99.90;;;;;;5113439;28;20040;-69
2022/07/29 02:59:32;;;;;;;8.60;2.03;;;19.00;99.90;;;;;;5113647;28;20070;-68
2022/07/29 03:01:59;;;;;;;4.68;1.50;;;19.00;99.90;;;;;;5112937;28;20024;-70
2022/07/29 03:04:28;;;;;;;6.53;1.70;;;19.00;99.90;;;;;;5113356;28;20098;-70
2022/07/29 03:06:58;;;;;;;6.07;1.83;;;18.60;99.90;;;;;;5113463;28;20384;-71
2022/07/29 03:09:25;;;;;;;7.63;2.03;;;18.50;99.90;;;;;;5123109;28;20027;-62
2022/07/29 03:11:53;;;;;;;3.35;1.73;;;18.70;99.90;;;;;;5123417;28;20028;-68
2022/07/29 03:14:20;;;;;;;8.23;2.30;;;18.70;99.90;;;;;;5113468;28;20352;-62
2022/07/29 03:16:47;;;;;;;5.90;2.05;;;18.80;99.90;;;;;;5098387;28;20064;-71
2022/07/29 03:19:13;;;;;;;4.00;2.00;;;18.90;99.90;;;;;;5113378;28;20031;-70
2022/07/29 03:21:39;;;;;;;7.90;2.28;;;18.80;99.90;;;;;;5113118;28;20030;-70
2022/07/29 03:24:05;;;;;;;7.15;2.40;;;18.70;99.90;;;;;;5113031;28;20388;-70
2022/07/29 03:26:31;;;;;;;7.78;2.30;;;18.60;99.90;;;;;;5113021;28;20084;-71
2022/07/29 03:28:57;;;;;;;5.00;1.60;;;18.50;99.90;;;;;;5115443;28;20028;-71
2022/07/29 03:31:23;;;;;;;5.95;2.58;;;18.50;99.90;;;;;;5117005;28;20032;-70
2022/07/29 03:33:48;;;;;;;5.85;2.45;;;18.50;99.90;;;;;;5117422;28;20049;-70
2022/07/29 03:36:15;;;;;;;3.83;2.13;;;18.50;99.90;;;;;;5117095;28;20039;-70
2022/07/29 03:38:42;;;;;;;3.85;2.20;;;18.60;99.90;;;;;;5117342;28;20024;-71
2022/07/29 03:41:11;;;;;;;5.15;1.85;;;18.60;99.90;;;;;;5117018;28;20044;-70
2022/07/29 03:43:39;;;;;;;4.70;2.20;;;18.60;99.90;;;;;;5117153;28;20019;-71
2022/07/29 03:46:08;;;;;;;7.60;2.20;;;18.60;99.90;;;;;;5116631;28;20058;-71
2022/07/29 03:48:38;;;;;;;11.10;2.70;;;18.50;99.90;;;;;;5117166;28;20016;-70
2022/07/29 03:51:05;;;;;;;6.07;2.17;;;18.30;99.90;;;;;;5117023;28;20413;-71
2022/07/29 03:53:32;;;;;;;5.78;1.90;;;18.20;99.90;;;;;;5117230;28;20450;-69
2022/07/29 03:56:01;;;;;;;6.82;2.20;;;18.20;99.90;;;;;;5116578;28;20031;-70
2022/07/29 03:58:30;;;;;;;10.40;3.63;;;18.20;99.90;;;;;;5116830;28;20421;-63
2022/07/29 04:00:56;;;;;;;4.47;2.25;;;18.30;99.90;;;;;;5116536;28;20036;-70
2022/07/29 04:03:22;;;;;;;5.22;2.00;;;18.40;99.90;;;;;;5116874;28;20023;-70
2022/07/29 04:05:59;;;;;;;5.20;2.20;;;18.20;99.90;;;;;;5098084;28;20490;-65
2022/07/29 04:08:25;;;;;;;6.05;2.35;;;18.20;99.90;;;;;;5116573;28;20027;-70
2022/07/29 04:10:52;;;;;;;5.78;2.50;;;18.20;99.90;;;;;;5115986;28;20094;-68
2022/07/29 04:13:19;;;;;;;6.47;2.33;;;18.00;99.90;;;;;;5115779;28;20035;-70
2022/07/29 04:15:44;;;;;;;12.57;2.45;;;18.10;99.90;;;;;;5105360;28;20400;-70
2022/07/29 04:18:10;;;;;;;4.63;2.00;;;18.20;99.90;;;;;;5112993;28;20032;-69
2022/07/29 04:20:36;;;;;;;5.30;2.40;;;18.20;99.90;;;;;;5116224;28;20100;-70
2022/07/29 04:23:01;;;;;;;4.97;2.10;;;18.40;99.90;;;;;;5116199;28;20019;-70
2022/07/29 04:25:27;;;;;;;8.10;2.10;;;18.30;99.90;;;;;;5116420;28;20390;-70
2022/07/29 04:28:02;;;;;;;6.38;2.15;;;18.00;99.90;;;;;;5116116;28;20047;-69
2022/07/29 04:30:30;;;;;;;8.65;2.25;;;18.00;99.90;;;;;;5102112;28;20114;-69
2022/07/29 04:32:56;;;;;;;6.60;2.72;;;18.00;99.90;;;;;;5116163;28;20422;-70
2022/07/29 04:35:22;;;;;;;9.98;2.53;;;18.10;99.90;;;;;;5116208;28;20039;-70
2022/07/29 04:37:47;;;;;;;7.80;2.60;;;18.20;99.90;;;;;;5116239;28;20019;-68
2022/07/29 04:40:14;;;;;;;12.00;2.80;;;18.30;99.90;;;;;;5114859;28;20388;-68
2022/07/29 04:42:39;;;;;;;4.05;2.15;;;18.20;99.90;;;;;;5115854;28;20491;-65
2022/07/29 04:45:06;;;;;;;4.35;2.40;;;18.40;99.90;;;;;;5115962;28;20112;-64
2022/07/29 04:47:32;;;;;;;8.15;2.15;;;18.50;99.90;;;;;;5115935;28;20051;-70
2022/07/29 04:49:57;;;;;;;5.47;2.20;;;18.60;99.90;;;;;;5115864;28;20051;-70
2022/07/29 04:52:23;;;;;;;6.32;2.90;;;18.30;99.90;;;;;;5115639;28;20028;-70
2022/07/29 04:54:49;;;;;;;4.18;2.10;;;17.90;99.90;;;;;;5097581;28;20039;-63
2022/07/29 04:57:15;;;;;;;6.15;2.30;;;17.70;99.90;;;;;;5115328;28;20043;-65
2022/07/29 04:59:40;;;;;;;10.60;2.63;;;17.80;99.90;;;;;;5115838;28;20027;-69
2022/07/29 05:02:06;;;;;;;7.00;2.55;;;18.00;99.90;;;;;;5115347;28;20034;-69
2022/07/29 05:04:32;;;;;;;7.88;2.47;;;18.10;99.90;;;;;;5115519;28;20459;-70
2022/07/29 05:06:58;;;;;;;9.80;2.42;;;18.20;99.90;;;;;;5115735;28;20035;-70
2022/07/29 05:09:23;;;;;;;6.35;2.53;;;18.20;99.90;;;;;;5097297;28;20041;-70
2022/07/29 05:11:49;;;;;;;4.72;2.30;;;18.20;99.90;;;;;;5097127;28;20239;-70
2022/07/29 05:14:15;;;;;;;4.93;2.55;;;18.50;99.90;;;;;;5115217;28;20020;-70
2022/07/29 05:16:41;;;;;;;8.45;2.70;;;18.20;99.90;;;;;;5100946;28;20371;-69
2022/07/29 05:19:07;;;;;;;6.93;2.88;;;17.90;99.90;;;;;;5115370;28;20055;-70
2022/07/29 05:21:33;;;;;;;8.23;2.83;;;18.00;99.90;;;;;;5115521;28;20059;-70
2022/07/29 05:23:58;;;;;;;12.98;3.85;;;18.20;99.90;;;;;;5115032;28;20028;-71
2022/07/29 05:26:24;;;;;;;9.57;3.33;;;18.10;99.90;;;;;;5114840;28;20035;-70
2022/07/29 05:28:50;;;;;;;8.68;3.92;;;18.10;99.90;;;;;;5115203;28;20026;-69
2022/07/29 05:31:16;;;;;;;7.85;3.33;;;18.00;99.90;;;;;;5115131;28;20379;-71
2022/07/29 05:33:42;;;;;;;7.85;2.95;;;18.00;99.90;;;;;;5114922;28;20049;-70
2022/07/29 05:36:08;;;;;;;9.13;3.50;;;18.20;99.90;;;;;;5115008;28;20050;-70
2022/07/29 05:38:35;;;;;;;12.25;3.38;;;18.30;99.90;;;;;;5110195;27;20027;-68
2022/07/29 05:41:00;;;;;;;9.98;3.10;;;18.20;99.90;;;;;;5107428;27;20027;-62
2022/07/29 05:43:27;;;;;;;4.40;2.85;;;18.30;99.90;;;;;;5108302;27;20024;-70
2022/07/29 05:45:53;;;;;;;11.60;2.97;;;18.20;99.90;;;;;;5114306;27;20141;-68
2022/07/29 05:48:19;;;;;;;9.82;2.70;;;18.40;99.90;;;;;;5123361;27;20110;-70
2022/07/29 05:50:44;;;;;;;6.72;3.03;;;18.60;99.90;;;;;;5121004;27;20417;-62
2022/07/29 05:53:13;;;;;;;10.07;3.00;;;18.70;99.90;;;;;;5123785;27;20000;-69
2022/07/29 05:55:39;;;;;;;11.90;3.20;;;18.80;99.90;;;;;;5123109;27;20037;-69
2022/07/29 05:58:05;;;;;;;10.05;2.83;;;18.80;99.90;;;;;;5123154;27;20134;-70
2022/07/29 06:00:31;;;;;;;8.23;2.67;;;18.80;99.90;;;;;;5124134;27;20043;-67
2022/07/29 06:02:56;;;;;;;6.05;2.83;;;18.90;99.90;;;;;;5120209;27;20023;-69
2022/07/29 06:05:23;;;;;;;6.13;2.95;;;19.00;99.90;;;;;;5118121;27;20094;-72
2022/07/29 06:07:48;;;;;;;18.00;3.08;;;19.20;99.90;;;;;;5115120;27;20051;-70
2022/07/29 06:10:14;;;;;;;5.75;2.72;;;19.30;99.90;;;;;;5116470;27;20055;-69
2022/07/29 06:12:40;;;;;;;6.00;2.80;;;19.40;99.90;;;;;;5120084;27;20031;-64
2022/07/29 06:15:07;;;;;;;8.30;3.20;;;19.30;99.90;;;;;;5114598;27;20026;-62
2022/07/29 06:17:32;;;;;;;14.75;3.47;;;19.10;99.90;;;;;;5126744;27;20030;-65
2022/07/29 06:19:58;;;;;;;10.55;3.78;;;19.40;99.90;;;;;;5120106;27;20028;-65
2022/07/29 06:22:24;;;;;;;6.93;3.28;;;19.30;99.90;;;;;;5115442;27;20442;-70
2022/07/29 06:24:50;;;;;;;10.10;3.13;;;19.60;99.90;;;;;;5127621;27;20378;-70
2022/07/29 06:27:16;;;;;;;19.42;3.70;;;19.00;99.90;;;;;;5126885;27;20092;-65
2022/07/29 06:29:41;;;;;;;8.23;3.38;;;19.00;99.90;;;;;;5125145;27;20019;-64
2022/07/29 06:32:08;;;;;;;11.05;4.15;;;19.00;99.90;;;;;;5098683;28;20115;-64
2022/07/29 06:34:35;;;;;;;8.15;3.40;;;19.20;99.90;;;;;;5114491;27;20081;-63
2022/07/29 06:37:08;;;;;;;10.77;3.50;;;19.40;99.90;;;;;;5126275;27;20460;-66
2022/07/29 06:39:36;;;;;;;10.13;3.25;;;19.10;99.90;;;;;;5120869;27;20038;-70
2022/07/29 06:42:03;;;;;;;9.68;3.28;;;18.60;99.90;;;;;;5098440;28;20038;-63
2022/07/29 06:44:33;;;;;;;7.70;3.45;;;18.60;99.90;;;;;;5107973;27;20055;-69
2022/07/29 06:46:58;;;;;;;10.98;4.28;;;19.00;99.90;;;;;;5106871;27;20022;-63
2022/07/29 06:49:25;;;;;;;12.48;4.57;;;19.00;99.90;;;;;;5091826;27;20023;-63
2022/07/29 06:51:52;;;;;;;13.15;4.20;;;19.40;99.90;;;;;;5111008;27;20015;-64
2022/07/29 06:54:17;;;;;;;14.63;4.40;;;19.70;99.90;;;;;;5116798;27;20032;-64
2022/07/29 06:56:43;;;;;;;9.23;4.30;;;20.00;99.90;;;;;;5093650;28;20119;-70
2022/07/29 06:59:10;;;;;;;13.88;4.28;;;19.80;99.90;;;;;;5122989;27;20035;-69
2022/07/29 07:01:37;;;;;;;12.75;4.50;;;19.80;99.90;;;;;;5120852;27;20034;-73
2022/07/29 07:04:03;;;;;;;11.70;4.25;;;19.80;99.90;;;;;;5113354;28;20062;-68
2022/07/29 07:06:29;;;;;;;12.65;4.93;;;20.10;99.90;;;;;;5096938;28;20055;-69
2022/07/29 07:08:55;;;;;;;12.50;5.25;;;20.20;99.90;;;;;;5113190;27;20015;-63
2022/07/29 07:11:21;;;;;;;9.73;3.92;;;19.70;99.90;;;;;;5123533;27;20417;-62
2022/07/29 07:13:46;;;;;;;11.02;5.13;;;20.00;99.90;;;;;;5117946;27;20050;-63
2022/07/29 07:16:12;;;;;;;10.55;4.53;;;20.40;99.90;;;;;;5097964;28;20460;-68
2022/07/29 07:18:38;;;;;;;12.43;4.57;;;20.50;99.90;;;;;;5119966;28;20019;-69
2022/07/29 07:21:04;;;;;;;12.02;5.38;;;20.60;99.90;;;;;;5117488;28;20036;-65
2022/07/29 07:23:30;;;;;;;13.10;4.75;;;20.50;99.90;;;;;;5117730;28;20019;-63
2022/07/29 07:25:56;;;;;;;7.05;4.35;;;20.70;99.90;;;;;;5130013;28;20053;-65
2022/07/29 07:28:22;;;;;;;16.45;4.68;;;20.90;99.90;;;;;;5124350;28;20028;-62
2022/07/29 07:30:47;;;;;;;10.27;4.10;;;21.20;99.90;;;;;;5111141;28;20036;-64
2022/07/29 07:33:14;;;;;;;13.50;4.93;;;21.00;99.90;;;;;;5112437;28;20027;-63
2022/07/29 07:35:40;;;;;;;17.70;4.25;;;21.10;99.90;;;;;;5116154;28;20039;-63
2022/07/29 07:38:06;;;;;;;12.05;4.07;;;20.80;99.90;;;;;;5113139;28;20020;-66
2022/07/29 07:40:32;;;;;;;15.52;4.90;;;20.70;99.90;;;;;;5116038;28;20035;-63
2022/07/29 07:42:58;;;;;;;11.60;4.25;;;21.20;99.90;;;;;;5116750;28;20029;-66
2022/07/29 07:45:24;;;;;;;11.68;4.07;;;21.10;99.90;;;;;;5120231;28;20016;-69
2022/07/29 07:47:49;;;;;;;14.00;4.03;;;21.00;99.90;;;;;;5114634;28;20089;-65
2022/07/29 07:50:17;;;;;;;8.02;4.30;;;21.00;99.90;;;;;;5112394;28;20024;-64
2022/07/29 07:52:51;;;;;;;10.77;4.63;;;21.30;99.90;;;;;;5116519;28;20023;-70
2022/07/29 07:55:17;;;;;;;13.88;5.70;;;21.20;99.90;;;;;;5106413;28;20472;-62
2022/07/29 07:57:44;;;;;;;10.68;6.03;;;21.40;99.90;;;;;;5116282;28;20022;-63
2022/07/29 08:00:11;;;;;;;8.82;5.07;;;20.90;99.90;;;;;;5113916;28;20035;-63
2022/07/29 08:02:42;;;;;;;10.40;5.20;;;21.10;99.90;;;;;;5120881;28;20480;-66
2022/07/29 08:05:08;;;;;;;13.48;5.93;;;21.00;99.90;;;;;;5115149;28;20092;-70
2022/07/29 08:07:34;;;;;;;10.63;4.60;;;20.70;99.90;;;;;;5117883;28;20015;-62
2022/07/29 08:10:00;;;;;;;9.40;4.80;;;20.50;99.90;;;;;;5115483;28;20050;-67
2022/07/29 08:12:26;;;;;;;12.88;5.00;;;20.70;99.90;;;;;;5092734;28;20094;-69
2022/07/29 08:14:51;;;;;;;14.10;6.60;;;20.50;99.90;;;;;;5109333;28;20083;-69
2022/07/29 08:17:17;;;;;;;14.98;5.50;;;20.80;99.90;;;;;;5105300;28;20028;-70
2022/07/29 08:19:43;;;;;;;6.82;5.20;;;21.50;99.90;;;;;;5123830;27;20031;-67
2022/07/29 08:22:09;;;;;;;13.48;6.97;;;22.20;99.90;;;;;;5122295;27;20079;-70
2022/07/29 08:24:46;;;;;;;13.88;6.22;;;21.50;99.90;;;;;;5121191;27;20367;-67
2022/07/29 08:27:13;;;;;;;17.35;5.97;;;21.50;99.90;;;;;;5115655;27;20031;-69
2022/07/29 08:29:39;;;;;;;13.00;7.60;;;21.50;99.90;;;;;;5117410;27;20027;-69
2022/07/29 08:32:05;;;;;;;14.30;7.82;;;20.80;99.90;;;;;;5123155;27;20051;-69
2022/07/29 08:34:31;;;;;;;16.80;8.05;;;20.90;99.90;;;;;;5113262;27;20558;-63
2022/07/29 08:36:57;;;;;;;12.52;6.35;;;21.40;99.90;;;;;;5120013;27;20027;-64
2022/07/29 08:39:23;;;;;;;18.10;6.30;;;21.50;99.90;;;;;;5102979;28;20024;-68
2022/07/29 08:41:50;;;;;;;14.75;7.40;;;21.40;99.90;;;;;;5125486;27;20031;-64
2022/07/29 08:44:21;;;;;;;15.52;6.95;;;20.90;99.90;;;;;;5123132;27;20040;-63
2022/07/29 08:46:47;;;;;;;24.93;7.67;;;21.30;99.90;;;;;;5123198;27;20045;-68
2022/07/29 08:49:13;;;;;;;20.60;6.57;;;21.80;99.90;;;;;;5080406;28;20017;-68
2022/07/29 08:51:41;;;;;;;14.90;6.68;;;21.90;99.90;;;;;;5118037;27;20024;-68
2022/07/29 08:54:09;;;;;;;11.77;6.03;;;21.80;99.90;;;;;;5125636;27;20038;-66
2022/07/29 08:56:35;;;;;;;14.05;6.00;;;22.10;99.90;;;;;;5097536;27;20043;-67
2022/07/29 08:59:04;;;;;;;11.18;5.22;;;22.90;99.90;;;;;;5091244;27;20024;-65
2022/07/29 09:01:33;;;;;;;12.48;5.00;;;23.30;98.70;;;;;;5116310;27;20038;-63
2022/07/29 09:04:00;;;;;;;9.98;6.28;;;23.20;99.50;;;;;;5118122;27;20027;-69
2022/07/29 09:06:32;;;;;;;19.75;6.07;;;22.90;99.30;;;;;;5115027;27;20035;-68
2022/07/29 09:08:59;;;;;;;11.35;5.63;;;23.00;99.50;;;;;;5123272;27;20047;-68
2022/07/29 09:11:26;;;;;;;13.63;6.80;;;23.50;98.80;;;;;;5115916;27;20059;-68
2022/07/29 09:13:51;;;;;;;11.38;5.40;;;23.20;98.80;;;;;;5109048;28;20792;-67
2022/07/29 09:16:17;;;;;;;14.95;6.80;;;23.00;99.20;;;;;;5099443;28;20089;-66
2022/07/29 09:18:46;;;;;;;12.85;6.05;;;23.10;99.90;;;;;;5111497;27;20085;-68
2022/07/29 09:24:07;;;;;;;14.05;6.32;;;23.30;99.20;;;;;;5111519;27;20020;-68
2022/07/29 09:26:41;;;;;;;13.52;6.30;;;23.60;98.90;;;;;;5116946;27;20046;-67
2022/07/29 09:29:22;;;;;;;11.40;6.47;;;23.20;98.90;;;;;;5131681;27;20035;-70
2022/07/29 09:31:52;;;;;;;13.32;6.60;;;22.90;99.50;;;;;;5125863;27;20016;-70
2022/07/29 09:34:31;;;;;;;20.10;7.25;;;23.00;99.90;;;;;;5119889;27;20118;-66
2022/07/29 09:36:57;;;;;;;10.55;5.20;;;23.20;98.70;;;;;;5094412;28;20080;-65
2022/07/29 09:39:35;;;;;;;12.20;5.20;;;23.40;99.40;;;;;;5122309;27;20505;-66
2022/07/29 09:42:04;;;;;;;15.32;5.65;;;23.60;98.20;;;;;;5126860;27;20487;-68
2022/07/29 09:44:50;;;;;;;11.93;5.00;;;23.30;99.00;;;;;;5112413;28;20092;-64
2022/07/29 09:47:17;;;;;;;8.10;4.85;;;24.10;98.50;;;;;;5113393;28;20400;-69
2022/07/29 09:49:59;;;;;;;136.35;11.38;;;24.80;97.50;;;;;;5113588;28;20102;-69
2022/07/29 09:52:30;;;;;;;8.88;4.40;;;24.60;96.20;;;;;;5113229;28;20023;-70
2022/07/29 09:55:09;;;;;;;11.05;4.22;;;24.90;96.90;;;;;;5114411;28;20031;-68
2022/07/29 09:57:36;;;;;;;8.98;4.22;;;25.00;95.80;;;;;;5114573;28;20054;-69
2022/07/29 10:00:22;;;;;;;7.53;4.18;;;24.30;95.90;;;;;;5114689;28;20036;-63
2022/07/29 10:02:48;;;;;;;9.57;3.67;;;24.10;96.60;;;;;;5114420;28;20028;-67
2022/07/29 10:05:24;;;;;;;10.32;3.78;;;24.50;96.60;;;;;;5114128;28;20407;-63
2022/07/29 10:07:52;;;;;;;16.77;4.53;;;24.80;95.90;;;;;;5111097;28;20035;-64
2022/07/29 10:10:33;;;;;;;14.88;4.53;;;24.90;96.20;;;;;;5113856;28;20031;-69
2022/07/29 10:13:05;;;;;;;7.70;3.90;;;25.10;95.20;;;;;;5114268;28;20062;-64
2022/07/29 10:15:38;;;;;;;8.38;3.65;;;25.70;94.60;;;;;;5104145;28;20055;-70
2022/07/29 10:18:04;;;;;;;18.95;3.72;;;25.80;94.50;;;;;;5109908;28;20031;-70
2022/07/29 10:20:30;;;;;;;10.80;3.40;;;25.30;95.10;;;;;;5114290;28;20471;-68
2022/07/29 10:22:56;;;;;;;8.13;3.63;;;25.20;94.30;;;;;;5113743;28;20464;-63
2022/07/29 10:25:24;;;;;;;9.82;3.83;;;25.50;94.00;;;;;;5114052;28;20501;-65
2022/07/29 10:27:51;;;;;;;13.48;4.07;;;25.70;94.10;;;;;;5113769;28;20019;-69
2022/07/29 10:30:18;;;;;;;9.38;3.83;;;25.70;93.60;;;;;;5113321;28;20027;-66
2022/07/29 10:32:55;;;;;;;10.93;4.35;;;25.90;94.00;;;;;;5113948;28;20015;-64
2022/07/29 10:35:33;;;;;;;10.02;4.70;;;26.10;93.30;;;;;;5108826;28;20114;-64
2022/07/29 10:38:37;;;;;;;9.40;4.25;;;26.20;93.40;;;;;;5112410;28;20024;-68
2022/07/29 10:43:49;;;;;;;10.15;3.92;;;25.90;93.80;;;;;;5113366;28;20015;-68
2022/07/29 10:46:16;;;;;;;9.32;4.53;;;26.00;93.50;;;;;;5104110;27;20027;-68
2022/07/29 10:49:06;;;;;;;10.70;4.88;;;26.40;93.50;;;;;;5120392;27;20022;-68
2022/07/29 10:51:51;;;;;;;14.73;4.50;;;26.30;92.90;;;;;;5083336;28;20130;-66
2022/07/29 10:54:47;;;;;;;16.95;4.95;;;26.80;93.20;;;;;;5115748;27;20067;-65
2022/07/29 10:57:14;;;;;;;9.77;4.80;;;27.20;92.40;;;;;;5102493;28;20487;-65
2022/07/29 10:59:40;;;;;;;10.00;5.22;;;26.80;91.60;;;;;;5117312;27;20016;-66
2022/07/29 11:02:32;;;;;;;10.40;4.70;;;26.60;92.50;;;;;;5115660;27;20506;-63
2022/07/29 11:04:57;;;;;;;7.35;3.97;;;26.70;91.80;;;;;;5094274;28;20040;-68
2022/07/29 11:07:24;;;;;;;13.95;4.65;;;27.00;91.70;;;;;;5119283;27;20483;-63
2022/07/29 11:10:11;;;;;;;11.48;5.00;;;26.30;92.30;;;;;;5106039;28;20035;-67
2022/07/29 11:12:37;;;;;;;7.93;3.92;;;26.50;92.00;;;;;;5108771;27;20039;-69
2022/07/29 11:15:04;;;;;;;9.88;3.20;;;26.20;91.90;;;;;;5109433;28;20019;-64
2022/07/29 11:18:11;;;;;;;8.50;3.80;;;26.20;91.00;;;;;;5113897;28;20384;-70
2022/07/29 11:20:47;;;;;;;8.85;4.13;;;26.30;91.60;;;;;;5107901;28;20038;-71
2022/07/29 11:23:26;;;;;;;11.05;4.90;;;26.40;91.80;;;;;;5105925;28;20069;-69
2022/07/29 11:26:19;;;;;;;10.10;3.60;;;26.10;91.80;;;;;;5118249;28;20032;-72
2022/07/29 11:28:48;;;;;;;8.43;3.70;;;26.60;91.90;;;;;;5094064;28;20388;-71
2022/07/29 11:31:35;;;;;;;9.85;2.67;;;27.00;91.00;;;;;;5115395;28;20031;-70
2022/07/29 11:34:21;;;;;;;8.30;3.70;;;26.80;91.20;;;;;;5118482;28;20063;-68
2022/07/29 11:37:21;;;;;;;5.95;2.75;;;27.10;89.90;;;;;;5121216;28;20065;-74
2022/07/29 11:39:52;;;;;;;9.77;2.60;;;27.00;90.30;;;;;;5050767;28;20062;-66
2022/07/29 11:42:24;;;;;;;;;;;27.10;89.30;;;;;;5110920;28;20059;-66
2022/07/29 11:45:09;;;;;;;;;;;27.30;88.60;;;;;;5109541;28;20435;-70
2022/07/29 11:47:47;;;;;;;9.90;2.55;;;27.10;86.60;;;;;;5098215;28;19914;-69
2022/07/29 11:50:16;;;;;;;6.97;2.60;;;27.10;88.40;;;;;;5115678;28;20153;-70
2022/07/29 11:52:46;;;;;;;8.75;2.70;;;27.10;87.10;;;;;;5099140;28;20035;-70
2022/07/29 11:55:18;;;;;;;8.38;1.98;;;27.40;87.50;;;;;;5116420;28;20043;-63
2022/07/29 11:57:55;;;;;;;11.48;2.65;;;27.10;85.90;;;;;;5116871;28;20028;-63
2022/07/29 12:00:50;;;;;;;8.18;2.28;;;27.10;85.80;;;;;;5116868;28;20032;-65
2022/07/29 12:03:27;;;;;;;9.32;2.40;;;27.80;86.40;;;;;;5088515;28;20119;-70
2022/07/29 12:05:53;;;;;;;5.65;1.85;;;28.70;85.80;;;;;;5106912;28;20027;-65
2022/07/29 12:08:21;;;;;;;8.32;2.58;;;29.20;84.70;;;;;;5116706;28;20475;-61
2022/07/29 12:10:50;;;;;;;10.63;2.83;;;29.00;82.40;;;;;;5116406;28;20485;-63
2022/07/29 12:13:19;;;;;;;7.22;2.28;;;29.20;82.60;;;;;;5116198;28;20031;-66
2022/07/29 12:15:56;;;;;;;4.38;2.10;;;28.50;82.10;;;;;;5098316;28;20102;-66
2022/07/29 12:18:23;;;;;;;10.50;2.42;;;28.60;83.70;;;;;;5116291;28;20020;-66
2022/07/29 12:20:56;;;;;;;4.13;1.77;;;28.40;82.60;;;;;;5115377;28;20421;-70
2022/07/29 12:23:22;;;;;;;6.80;2.85;;;28.20;83.90;;;;;;5116505;28;20032;-65
2022/07/29 12:25:47;;;;;;;7.80;2.72;;;28.30;84.00;;;;;;5116938;28;20027;-65
2022/07/29 12:28:18;;;;;;;9.88;1.77;;;28.30;83.50;;;;;;5115847;28;20031;-67
2022/07/29 12:30:49;;;;;;;7.60;2.50;;;28.50;83.30;;;;;;5116400;28;20027;-64
2022/07/29 12:33:16;;;;;;;4.65;2.15;;;28.80;83.50;;;;;;5114934;28;20765;-70
2022/07/29 12:35:44;;;;;;;10.70;2.50;;;29.50;82.50;;;;;;5116307;28;20031;-66
2022/07/29 12:38:12;;;;;;;9.30;2.13;;;29.60;81.00;;;;;;5116117;28;20023;-67
2022/07/29 12:40:37;;;;;;;4.03;2.78;;;29.70;81.60;;;;;;5115458;28;20043;-70
2022/07/29 12:43:18;;;;;;;8.95;2.28;;;30.20;80.50;;;;;;5116234;28;20035;-68
2022/07/29 12:45:50;;;;;;;7.27;1.87;;;30.10;79.50;;;;;;5116069;28;20421;-68
2022/07/29 12:48:17;;;;;;;7.93;2.28;;;30.00;80.10;;;;;;5115849;28;20441;-64
2022/07/29 12:50:53;;;;;;;6.88;2.65;;;29.30;79.20;;;;;;5115830;28;20027;-66
2022/07/29 12:53:19;;;;;;;9.43;2.50;;;29.10;79.50;;;;;;5115610;28;20163;-71
2022/07/29 12:55:54;;;;;;;6.82;1.80;;;29.80;80.10;;;;;;5115865;28;20373;-65
2022/07/29 12:58:46;;;;;;;6.97;2.72;;;30.50;80.00;;;;;;5115996;28;20020;-71
2022/07/29 13:01:15;;;;;;;9.77;3.28;;;30.10;78.50;;;;;;5110679;28;20066;-65
2022/07/29 13:03:56;;;;;;;6.63;2.35;;;29.90;78.40;;;;;;5115813;28;20035;-65
2022/07/29 13:06:41;;;;;;;11.23;2.33;;;29.50;78.20;;;;;;5103017;28;20103;-71